createdAt,value
2023-08-14T00:00:56.656Z,96.70
2023-08-14T00:03:25.742Z,96.70
2023-08-14T00:05:54.528Z,96.70
2023-08-14T00:08:23.486Z,96.70
2023-08-14T00:10:52.349Z,96.70
2023-08-14T00:13:23.471Z,96.70
2023-08-14T00:15:52.564Z,96.70
2023-08-14T00:18:21.457Z,96.70
2023-08-14T00:20:50.168Z,96.70
2023-08-14T00:23:18.808Z,96.70
2023-08-14T00:25:47.698Z,96.70
2023-08-14T00:28:16.344Z,96.70
2023-08-14T00:30:46.784Z,96.70
2023-08-14T00:33:15.111Z,96.70
2023-08-14T00:35:43.843Z,96.70
2023-08-14T00:38:12.739Z,96.70
2023-08-14T00:40:41.538Z,96.70
2023-08-14T00:43:11.405Z,96.70
2023-08-14T00:45:46.278Z,96.70
2023-08-14T00:48:17.573Z,96.70
2023-08-14T00:50:46.899Z,96.70
2023-08-14T00:53:16.460Z,96.70
2023-08-14T00:55:46.698Z,96.70
2023-08-14T00:58:16.224Z,96.70
2023-08-14T01:00:46.430Z,96.70
2023-08-14T01:03:17.409Z,96.70
2023-08-14T01:05:47.380Z,96.70
2023-08-14T01:08:16.276Z,96.70
2023-08-14T01:11:00.336Z,96.70
2023-08-14T01:13:37.082Z,96.70
2023-08-14T01:16:09.937Z,96.70
2023-08-14T01:18:42.254Z,96.70
2023-08-14T01:21:37.672Z,96.70
2023-08-14T01:24:20.394Z,96.70
2023-08-14T01:26:52.134Z,96.70
2023-08-14T01:29:21.051Z,96.70
2023-08-14T01:31:49.783Z,96.70
2023-08-14T01:34:18.981Z,96.70
2023-08-14T01:36:55.141Z,96.70
2023-08-14T01:39:25.945Z,96.70
2023-08-14T01:42:04.980Z,96.70
2023-08-14T01:44:34.415Z,96.70
2023-08-14T01:47:05.361Z,96.70
2023-08-14T01:49:34.648Z,96.70
2023-08-14T01:52:03.646Z,96.70
2023-08-14T01:55:10.014Z,96.70
2023-08-14T01:57:40.377Z,96.70
2023-08-14T02:00:11.704Z,96.70
2023-08-14T02:02:43.184Z,96.70
2023-08-14T02:05:12.171Z,96.70
2023-08-14T02:07:41.336Z,96.70
2023-08-14T02:10:10.762Z,96.70
2023-08-14T02:12:41.171Z,96.70
2023-08-14T02:15:11.202Z,96.70
2023-08-14T02:17:39.918Z,96.70
2023-08-14T02:20:10.934Z,96.70
2023-08-14T02:22:39.735Z,96.70
2023-08-14T02:25:09.657Z,96.70
2023-08-14T02:27:40.167Z,96.70
2023-08-14T02:30:09.197Z,96.70
2023-08-14T02:32:37.806Z,96.70
2023-08-14T02:35:07.562Z,96.70
2023-08-14T02:37:36.337Z,96.70
2023-08-14T02:40:06.070Z,96.70
2023-08-14T02:42:34.948Z,96.70
2023-08-14T02:45:06.168Z,96.70
2023-08-14T02:47:35.813Z,96.70
2023-08-14T02:50:04.868Z,96.70
2023-08-14T02:52:33.724Z,96.70
2023-08-14T02:55:02.607Z,96.70
2023-08-14T02:57:31.601Z,96.70
2023-08-14T03:00:00.336Z,96.70
2023-08-14T03:02:31.076Z,96.70
2023-08-14T03:05:00.971Z,96.70
2023-08-14T03:07:29.661Z,96.70
2023-08-14T03:09:58.811Z,96.70
2023-08-14T03:12:27.593Z,96.70
2023-08-14T03:14:56.363Z,96.70
2023-08-14T03:17:25.331Z,96.70
2023-08-14T03:19:55.847Z,96.70
2023-08-14T03:22:24.948Z,96.70
2023-08-14T03:24:53.610Z,96.70
2023-08-14T03:27:22.445Z,96.70
2023-08-14T03:29:51.361Z,96.70
2023-08-14T03:32:20.841Z,96.70
2023-08-14T03:34:49.749Z,96.70
2023-08-14T03:37:20.244Z,96.70
2023-08-14T03:39:49.292Z,96.70
2023-08-14T03:42:18.281Z,96.70
2023-08-14T03:44:50.008Z,96.70
2023-08-14T03:47:20.662Z,96.70
2023-08-14T03:49:49.627Z,96.70
2023-08-14T03:52:20.300Z,96.70
2023-08-14T03:54:49.394Z,96.70
2023-08-14T03:57:18.164Z,96.70
2023-08-14T03:59:49.591Z,96.70
2023-08-14T04:02:20.706Z,96.70
2023-08-14T04:04:50.365Z,96.70
2023-08-14T04:07:21.126Z,96.70
2023-08-14T04:09:50.374Z,96.70
2023-08-14T04:12:19.890Z,96.70
2023-08-14T04:14:51.846Z,96.70
2023-08-14T04:17:21.119Z,96.70
2023-08-14T04:19:50.177Z,96.70
2023-08-14T04:22:21.388Z,96.70
2023-08-14T04:24:50.788Z,96.70
2023-08-14T04:27:19.991Z,96.70
2023-08-14T04:29:49.369Z,96.70
2023-08-14T04:32:18.675Z,96.70
2023-08-14T04:34:49.248Z,96.70
2023-08-14T04:37:20.701Z,96.70
2023-08-14T04:39:50.402Z,96.70
2023-08-14T04:42:19.801Z,96.70
2023-08-14T04:44:49.323Z,96.70
2023-08-14T04:47:18.455Z,96.70
2023-08-14T04:49:47.754Z,96.70
2023-08-14T04:52:17.076Z,96.70
2023-08-14T04:54:48.439Z,96.70
2023-08-14T04:57:18.721Z,96.70
2023-08-14T04:59:48.082Z,96.70
2023-08-14T05:02:17.438Z,96.70
2023-08-14T05:04:48.229Z,96.70
2023-08-14T05:07:17.453Z,96.70
2023-08-14T05:09:50.281Z,96.70
2023-08-14T05:12:19.669Z,96.70
2023-08-14T05:14:49.043Z,96.70
2023-08-14T05:17:18.353Z,96.70
2023-08-14T05:19:48.241Z,96.70
2023-08-14T05:22:18.155Z,96.70
2023-08-14T05:24:49.232Z,96.70
2023-08-14T05:27:18.580Z,96.70
2023-08-14T05:29:49.414Z,96.70
2023-08-14T05:32:18.970Z,96.70
2023-08-14T05:34:48.239Z,96.70
2023-08-14T05:37:17.479Z,96.70
2023-08-14T05:39:48.149Z,96.70
2023-08-14T05:42:17.619Z,96.70
2023-08-14T05:44:47.193Z,96.70
2023-08-14T05:47:16.437Z,96.70
2023-08-14T05:49:45.459Z,96.70
2023-08-14T05:52:14.627Z,96.70
2023-08-14T05:54:43.831Z,96.70
2023-08-14T05:57:14.541Z,96.70
2023-08-14T05:59:44.006Z,96.70
2023-08-14T06:02:13.121Z,96.70
2023-08-14T06:04:42.701Z,96.70
2023-08-14T06:07:12.041Z,96.70
2023-08-14T06:09:41.010Z,96.70
2023-08-14T06:12:10.852Z,96.70
2023-08-14T06:14:41.703Z,96.70
2023-08-14T06:17:11.254Z,96.70
2023-08-14T06:19:40.420Z,96.70
2023-08-14T06:22:09.753Z,96.70
2023-08-14T06:24:38.814Z,96.70
2023-08-14T06:27:08.099Z,96.70
2023-08-14T06:29:37.260Z,96.70
2023-08-14T06:32:08.273Z,96.70
2023-08-14T06:34:38.779Z,96.70
2023-08-14T06:37:08.408Z,96.70
2023-08-14T06:39:37.437Z,96.70
2023-08-14T06:42:07.411Z,96.70
2023-08-14T06:44:37.068Z,96.70
2023-08-14T06:47:08.011Z,96.70
2023-08-14T06:49:37.048Z,96.70
2023-08-14T06:52:06.947Z,96.70
2023-08-14T06:54:36.096Z,96.70
2023-08-14T06:57:06.215Z,96.70
2023-08-14T06:59:36.668Z,96.70
2023-08-14T07:02:07.753Z,96.70
2023-08-14T07:04:36.973Z,96.70
2023-08-14T07:07:05.979Z,96.70
2023-08-14T07:09:35.770Z,96.70
2023-08-14T07:12:05.034Z,96.70
2023-08-14T07:14:35.251Z,96.70
2023-08-14T07:17:04.675Z,96.70
2023-08-14T07:19:35.452Z,96.70
2023-08-14T07:22:04.923Z,96.70
2023-08-14T07:24:34.412Z,96.70
2023-08-14T07:27:04.030Z,96.70
2023-08-14T07:29:36.179Z,96.70
2023-08-14T07:32:06.252Z,96.70
2023-08-14T07:34:36.791Z,96.70
2023-08-14T07:37:06.346Z,96.70
2023-08-14T07:39:35.662Z,96.70
2023-08-14T07:42:04.991Z,96.70
2023-08-14T07:44:34.103Z,96.70
2023-08-14T07:47:03.298Z,96.70
2023-08-14T07:49:36.009Z,96.70
2023-08-14T07:52:05.668Z,96.70
2023-08-14T07:54:34.507Z,96.70
2023-08-14T07:57:03.827Z,96.70
2023-08-14T07:59:32.714Z,96.70
2023-08-14T08:02:01.943Z,96.70
2023-08-14T08:04:39.990Z,96.70
2023-08-14T08:07:11.493Z,96.70
2023-08-14T08:09:40.746Z,96.70
2023-08-14T08:12:10.190Z,96.70
2023-08-14T08:14:39.612Z,96.70
2023-08-14T08:17:10.782Z,96.70
2023-08-14T08:19:39.960Z,96.70
2023-08-14T08:22:11.336Z,96.70
2023-08-14T08:24:40.488Z,96.70
2023-08-14T08:27:09.615Z,96.70
2023-08-14T08:29:38.780Z,96.70
2023-08-14T08:32:08.256Z,96.70
2023-08-14T08:34:36.496Z,96.70
2023-08-14T08:37:04.623Z,96.70
2023-08-14T08:39:34.117Z,96.70
2023-08-14T08:42:04.188Z,96.70
2023-08-14T08:44:36.225Z,96.70
2023-08-14T08:47:12.059Z,96.70
2023-08-14T08:49:44.017Z,96.70
2023-08-14T08:52:12.937Z,96.70
2023-08-14T08:54:42.586Z,96.70
2023-08-14T08:57:11.199Z,96.70
2023-08-14T08:59:41.670Z,96.70
2023-08-14T09:02:10.479Z,96.70
2023-08-14T09:04:38.705Z,96.70
2023-08-14T09:07:08.277Z,96.70
2023-08-14T09:09:36.550Z,96.70
2023-08-14T09:12:06.288Z,96.70
2023-08-14T09:14:34.452Z,96.70
2023-08-14T09:17:04.296Z,96.70
2023-08-14T09:19:32.529Z,96.70
2023-08-14T09:22:00.971Z,96.70
2023-08-14T09:24:29.277Z,96.70
2023-08-14T09:26:57.295Z,96.70
2023-08-14T09:29:27.552Z,96.70
2023-08-14T09:31:55.764Z,96.70
2023-08-14T09:34:23.846Z,96.70
2023-08-14T09:36:52.049Z,96.70
2023-08-14T09:39:21.567Z,96.70
2023-08-14T09:41:51.069Z,96.70
2023-08-14T09:44:21.181Z,96.70
2023-08-14T09:46:53.584Z,96.70
2023-08-14T09:49:22.061Z,96.70
2023-08-14T09:51:57.406Z,96.70
2023-08-14T09:54:33.115Z,96.70
2023-08-14T09:57:01.863Z,96.70
2023-08-14T09:59:30.055Z,96.70
2023-08-14T10:02:01.442Z,96.70
2023-08-14T10:04:32.431Z,96.70
2023-08-14T10:07:00.827Z,96.70
2023-08-14T10:09:29.988Z,96.70
2023-08-14T10:12:05.335Z,96.70
2023-08-14T10:14:35.925Z,96.70
2023-08-14T10:17:08.420Z,96.70
2023-08-14T10:19:37.936Z,96.70
2023-08-14T10:22:07.790Z,96.70
2023-08-14T10:24:39.085Z,96.70
2023-08-14T10:27:07.346Z,96.70
2023-08-14T10:29:36.793Z,96.70
2023-08-14T10:32:07.456Z,96.70
2023-08-14T10:34:35.988Z,96.70
2023-08-14T10:37:03.902Z,96.70
2023-08-14T10:39:36.555Z,96.70
2023-08-14T10:42:06.817Z,96.70
2023-08-14T10:44:36.868Z,96.70
2023-08-14T10:47:13.341Z,96.70
2023-08-14T10:49:46.083Z,96.70
2023-08-14T10:52:18.104Z,96.70
2023-08-14T10:54:51.549Z,96.70
2023-08-14T10:57:28.233Z,96.70
2023-08-14T10:59:57.470Z,96.70
2023-08-14T11:02:27.461Z,96.70
2023-08-14T11:05:02.801Z,96.70
2023-08-14T11:07:31.574Z,96.70
2023-08-14T11:10:03.312Z,96.70
2023-08-14T11:12:33.520Z,96.70
2023-08-14T11:15:01.739Z,96.70
2023-08-14T11:17:31.365Z,96.70
2023-08-14T11:19:59.420Z,96.70
2023-08-14T11:22:27.432Z,96.70
2023-08-14T11:24:55.638Z,96.70
2023-08-14T11:27:24.964Z,96.70
2023-08-14T11:29:54.038Z,96.70
2023-08-14T11:32:25.945Z,96.70
2023-08-14T11:34:55.696Z,96.70
2023-08-14T11:37:24.338Z,96.70
2023-08-14T11:39:52.755Z,96.70
2023-08-14T11:42:21.337Z,96.70
2023-08-14T11:44:49.805Z,96.50
2023-08-14T11:47:18.996Z,96.50
2023-08-14T11:49:47.125Z,96.10
2023-08-14T11:52:17.045Z,95.90
2023-08-14T11:54:46.459Z,96.60
2023-08-14T11:57:15.091Z,96.70
2023-08-14T11:59:44.668Z,96.70
2023-08-14T12:02:13.018Z,96.70
2023-08-14T12:04:42.185Z,96.70
2023-08-14T12:07:10.823Z,96.20
2023-08-14T12:09:40.809Z,94.10
2023-08-14T12:12:09.229Z,94.40
2023-08-14T12:14:40.856Z,93.50
2023-08-14T12:17:16.972Z,95.10
2023-08-14T12:19:52.660Z,93.90
2023-08-14T12:22:24.470Z,94.20
2023-08-14T12:24:55.815Z,93.70
2023-08-14T12:27:25.585Z,91.80
2023-08-14T12:29:54.990Z,92.00
2023-08-14T12:32:24.860Z,91.70
2023-08-14T12:34:53.804Z,92.10
2023-08-14T12:37:23.088Z,92.60
2023-08-14T12:39:55.010Z,93.20
2023-08-14T12:42:23.465Z,93.50
2023-08-14T12:44:53.871Z,94.60
2023-08-14T12:47:22.535Z,93.80
2023-08-14T12:49:51.163Z,93.40
2023-08-14T12:52:19.501Z,94.20
2023-08-14T12:54:47.785Z,93.80
2023-08-14T12:57:17.612Z,94.50
2023-08-14T12:59:50.858Z,95.10
2023-08-14T13:02:24.662Z,94.60
2023-08-14T13:04:57.900Z,95.50
2023-08-14T13:07:29.528Z,95.30
2023-08-14T13:09:57.983Z,95.40
2023-08-14T13:12:27.762Z,94.60
2023-08-14T13:14:56.126Z,95.70
2023-08-14T13:17:24.606Z,94.80
2023-08-14T13:19:53.785Z,94.10
2023-08-14T13:22:22.680Z,93.60
2023-08-14T13:27:24.730Z,93.90
2023-08-14T13:29:54.372Z,92.70
2023-08-14T13:32:22.697Z,93.00
2023-08-14T13:34:51.601Z,92.70
2023-08-14T13:37:20.148Z,92.60
2023-08-14T13:39:49.058Z,91.70
2023-08-14T13:42:17.707Z,92.20
2023-08-14T13:44:46.034Z,96.70
2023-08-14T13:47:18.300Z,96.70
2023-08-14T13:49:47.290Z,96.70
2023-08-14T13:52:15.439Z,96.70
2023-08-14T13:54:44.771Z,96.70
2023-08-14T13:57:13.359Z,96.70
2023-08-14T13:59:41.554Z,96.70
2023-08-14T14:02:11.111Z,96.70
2023-08-14T14:04:41.129Z,96.70
2023-08-14T14:07:09.144Z,96.70
2023-08-14T14:09:38.324Z,96.70
2023-08-14T14:12:08.642Z,96.70
2023-08-14T14:14:36.764Z,96.70
2023-08-14T14:17:05.152Z,96.70
2023-08-14T14:19:33.414Z,96.70
2023-08-14T14:22:03.764Z,96.70
2023-08-14T14:24:33.478Z,96.70
2023-08-14T14:27:02.266Z,96.70
2023-08-14T14:29:32.364Z,96.70
2023-08-14T14:32:00.848Z,96.70
2023-08-14T14:34:30.050Z,96.70
2023-08-14T14:36:58.474Z,96.70
2023-08-14T14:39:28.185Z,96.70
2023-08-14T14:41:56.408Z,96.70
2023-08-14T14:44:24.508Z,96.70
2023-08-14T14:46:52.756Z,96.70
2023-08-14T14:49:20.907Z,96.70
2023-08-14T14:51:50.212Z,96.70
2023-08-14T14:54:18.450Z,96.70
2023-08-14T14:56:48.502Z,96.70
2023-08-14T14:59:16.661Z,96.70
2023-08-14T15:01:44.879Z,96.70
2023-08-14T15:04:14.045Z,96.70
2023-08-14T15:06:43.593Z,96.70
2023-08-14T15:09:11.789Z,96.70
2023-08-14T15:11:39.995Z,96.70
2023-08-14T15:14:09.768Z,96.70
2023-08-14T15:16:37.956Z,96.70
2023-08-14T15:19:06.305Z,96.70
2023-08-14T15:21:34.614Z,96.70
2023-08-14T15:24:02.806Z,96.70
2023-08-14T15:26:31.102Z,96.70
2023-08-14T15:28:59.205Z,96.70
2023-08-14T15:31:29.189Z,96.70
2023-08-14T15:33:57.297Z,96.70
2023-08-14T15:36:25.594Z,96.70
2023-08-14T15:38:55.856Z,96.70
2023-08-14T15:41:24.327Z,96.70
2023-08-14T15:43:52.583Z,96.70
2023-08-14T15:46:20.881Z,96.70
2023-08-14T15:48:50.674Z,96.70
2023-08-14T15:51:19.935Z,96.70
2023-08-14T15:53:48.010Z,96.70
2023-08-14T15:56:16.298Z,96.70
2023-08-14T15:58:44.502Z,96.70
2023-08-14T16:01:14.329Z,96.70
2023-08-14T16:03:42.622Z,96.70
2023-08-14T16:06:12.235Z,96.70
2023-08-14T16:08:40.413Z,96.70
2023-08-14T16:11:08.614Z,96.70
2023-08-14T16:13:37.021Z,96.70
2023-08-14T16:16:05.307Z,96.70
2023-08-14T16:18:33.865Z,96.70
2023-08-14T16:21:04.531Z,96.70
2023-08-14T16:23:34.108Z,96.70
2023-08-14T16:26:02.185Z,96.70
2023-08-14T16:28:30.457Z,96.70
2023-08-14T16:30:58.939Z,96.70
2023-08-14T16:33:27.269Z,96.70
2023-08-14T16:35:55.901Z,96.70
2023-08-14T16:38:24.364Z,96.70
2023-08-14T16:40:54.149Z,96.70
2023-08-14T16:43:22.749Z,96.70
2023-08-14T16:45:51.743Z,96.70
2023-08-14T16:48:20.382Z,96.70
2023-08-14T16:50:50.329Z,96.70
2023-08-14T16:53:18.800Z,96.70
2023-08-14T16:55:47.122Z,96.70
2023-08-14T16:58:17.124Z,96.70
2023-08-14T17:00:45.340Z,96.70
2023-08-14T17:03:13.914Z,96.70
2023-08-14T17:05:42.341Z,96.70
2023-08-14T17:08:10.746Z,96.70
2023-08-14T17:10:40.106Z,96.70
2023-08-14T17:13:08.583Z,96.70
2023-08-14T17:15:42.583Z,96.70
2023-08-14T17:18:11.219Z,96.70
2023-08-14T17:20:46.702Z,96.70
2023-08-14T17:23:17.362Z,96.70
2023-08-14T17:25:47.150Z,96.70
2023-08-14T17:28:15.379Z,96.70
2023-08-14T17:30:45.269Z,96.70
2023-08-14T17:33:13.957Z,96.70
2023-08-14T17:35:46.952Z,96.70
2023-08-14T17:38:16.420Z,96.70
2023-08-14T17:40:45.391Z,96.70
2023-08-14T17:43:13.789Z,96.70
2023-08-14T17:45:46.358Z,96.70
2023-08-14T17:48:14.800Z,96.70
2023-08-14T17:50:43.072Z,96.70
2023-08-14T17:53:11.750Z,96.70
2023-08-14T17:55:40.093Z,96.70
2023-08-14T17:58:08.338Z,96.70
2023-08-14T18:00:36.674Z,96.70
2023-08-14T18:03:07.077Z,96.70
2023-08-14T18:05:35.610Z,96.70
2023-08-14T18:08:04.230Z,96.70
2023-08-14T18:10:32.629Z,96.70
2023-08-14T18:13:00.895Z,96.70
2023-08-14T18:15:29.213Z,96.70
2023-08-14T18:17:57.570Z,96.70
2023-08-14T18:20:27.475Z,96.70
2023-08-14T18:22:55.759Z,96.70
2023-08-14T18:25:25.012Z,96.70
2023-08-14T18:27:54.639Z,96.70
2023-08-14T18:30:22.927Z,96.70
2023-08-14T18:32:51.388Z,96.70
2023-08-14T18:35:19.990Z,96.70
2023-08-14T18:37:49.716Z,96.70
2023-08-14T18:40:18.099Z,96.70
2023-08-14T18:42:46.429Z,96.70
2023-08-14T18:45:16.868Z,96.70
2023-08-14T18:47:45.508Z,96.70
2023-08-14T18:50:14.717Z,96.70
2023-08-14T18:52:44.500Z,96.70
2023-08-14T18:55:14.399Z,96.70
2023-08-14T18:57:44.441Z,96.70
2023-08-14T19:00:13.580Z,96.70
2023-08-14T19:02:41.948Z,96.70
2023-08-14T19:05:11.426Z,96.70
2023-08-14T19:07:40.142Z,96.70
2023-08-14T19:10:09.240Z,96.70
2023-08-14T19:12:39.023Z,96.70
2023-08-14T19:15:09.461Z,96.70
2023-08-14T19:17:38.809Z,96.70
2023-08-14T19:20:08.969Z,96.70
2023-08-14T19:22:37.300Z,96.70
2023-08-14T19:25:06.588Z,96.70
2023-08-14T19:27:34.975Z,96.70
2023-08-14T19:30:05.762Z,96.70
2023-08-14T19:32:34.121Z,96.70
2023-08-14T19:35:02.542Z,96.70
2023-08-14T19:37:30.974Z,96.70
2023-08-14T19:39:59.297Z,96.70
2023-08-14T19:42:27.584Z,96.70
2023-08-14T19:44:55.936Z,96.70
2023-08-14T19:47:25.825Z,96.70
2023-08-14T19:49:55.238Z,96.70
2023-08-14T19:52:23.550Z,96.70
2023-08-14T19:54:51.752Z,96.70
2023-08-14T19:57:21.005Z,96.70
2023-08-14T19:59:49.722Z,96.70
2023-08-14T20:02:17.935Z,96.70
2023-08-14T20:04:47.900Z,96.70
2023-08-14T20:07:16.386Z,96.70
2023-08-14T20:09:44.604Z,96.70
2023-08-14T20:12:12.992Z,96.70
2023-08-14T20:14:41.718Z,96.70
2023-08-14T20:17:10.029Z,96.70
2023-08-14T20:19:38.536Z,96.70
2023-08-14T20:22:08.402Z,96.70
2023-08-14T20:24:36.782Z,96.70
2023-08-14T20:27:06.321Z,96.70
2023-08-14T20:29:34.964Z,96.70
2023-08-14T20:32:03.434Z,96.70
2023-08-14T20:34:32.329Z,96.70
2023-08-14T20:37:00.550Z,96.70
2023-08-14T20:39:30.801Z,96.70
2023-08-14T20:41:59.382Z,96.70
2023-08-14T20:44:27.464Z,96.70
2023-08-14T20:46:55.572Z,96.70
2023-08-14T20:49:23.812Z,96.70
2023-08-14T20:51:52.024Z,96.70
2023-08-14T20:54:20.297Z,96.70
2023-08-14T20:56:50.268Z,96.70
2023-08-14T20:59:18.381Z,96.70
2023-08-14T21:01:47.302Z,96.70
2023-08-14T21:04:15.504Z,96.70
2023-08-14T21:06:43.627Z,96.70
2023-08-14T21:09:11.830Z,96.70
2023-08-14T21:11:41.774Z,96.70
2023-08-14T21:14:11.457Z,96.70
2023-08-14T21:16:40.644Z,96.70
2023-08-14T21:19:08.882Z,96.70
2023-08-14T21:21:37.313Z,96.70
2023-08-14T21:24:06.162Z,96.70
2023-08-14T21:26:34.562Z,96.70
2023-08-14T21:29:02.599Z,96.70
2023-08-14T21:31:34.595Z,96.70
2023-08-14T21:34:02.824Z,96.70
2023-08-14T21:36:30.815Z,96.70
2023-08-14T21:38:59.180Z,96.70
2023-08-14T21:41:27.215Z,96.70
2023-08-14T21:43:55.319Z,96.70
2023-08-14T21:46:25.570Z,96.70
2023-08-14T21:48:55.266Z,96.70
2023-08-14T21:51:24.177Z,96.70
2023-08-14T21:53:52.539Z,96.70
2023-08-14T21:56:20.514Z,96.70
2023-08-14T21:58:48.881Z,96.70
2023-08-14T22:01:17.176Z,96.70
2023-08-14T22:03:45.368Z,96.70
2023-08-14T22:06:14.978Z,96.70
2023-08-14T22:08:43.341Z,96.70
2023-08-14T22:11:11.603Z,96.70
2023-08-14T22:13:39.898Z,96.70
2023-08-14T22:16:09.334Z,96.70
2023-08-14T22:18:37.683Z,96.70
2023-08-14T22:21:05.673Z,96.70
2023-08-14T22:23:35.509Z,96.70
2023-08-14T22:26:03.530Z,96.70
2023-08-14T22:28:31.759Z,96.70
2023-08-14T22:30:59.682Z,96.70
2023-08-14T22:33:27.709Z,96.70
2023-08-14T22:35:56.171Z,96.70
2023-08-14T22:38:24.876Z,96.70
2023-08-14T22:40:54.274Z,96.70
2023-08-14T22:43:22.262Z,96.70
2023-08-14T22:48:23.096Z,96.70
2023-08-14T22:50:51.132Z,96.70
2023-08-14T22:53:19.458Z,96.70
2023-08-14T22:55:49.847Z,96.70
2023-08-14T22:58:20.431Z,96.70
2023-08-14T23:00:55.623Z,96.70
2023-08-14T23:03:24.266Z,96.70
2023-08-14T23:05:52.260Z,96.70
2023-08-14T23:08:21.546Z,96.70
2023-08-14T23:10:50.898Z,96.70
2023-08-14T23:13:22.504Z,96.70
2023-08-14T23:15:52.095Z,96.70
2023-08-14T23:18:21.734Z,96.70
2023-08-14T23:20:51.409Z,96.70
2023-08-14T23:23:21.137Z,96.70
2023-08-14T23:25:50.232Z,96.70
2023-08-14T23:28:21.212Z,96.70
2023-08-14T23:30:50.887Z,96.70
2023-08-14T23:33:19.859Z,96.70
2023-08-14T23:35:49.097Z,96.70
2023-08-14T23:38:18.039Z,96.70
2023-08-14T23:40:47.219Z,96.70
2023-08-14T23:43:16.279Z,96.70
2023-08-14T23:45:47.399Z,96.70
2023-08-14T23:48:16.559Z,96.70
2023-08-14T23:50:47.165Z,96.70
2023-08-14T23:53:16.137Z,96.70
2023-08-14T23:55:48.648Z,96.70
2023-08-14T23:58:16.628Z,96.70
